Details From EPKT - PYRZOWICE
To EPSY - SZYMANY
Flight Number -
Tags generated
Created
Modified
Stats Distance 193 nm / 358 km
Max Altitude 21,200 ft / 6,462 m
Waypoints 3
Social Downloads 0
Likes 0
Share VATSIM

Download

Looking for another format? Having issues loading an existing format? Contact us
Advertisement - Login to hide

Notes

Basic altitude profile: - Ascent Rate: 2500ft/min - Ascent Speed: 250kts - Cruise Altitude: 35000ft - Cruise Speed: 420kts - Descent Rate: 1500ft/min - Descent Speed: 250kts Options: - Use NATs: yes - Use PACOTS: yes - Use low airways: yes - Use high airways: yes

Route

EPKT XALUR EPSY

ID Type Via Altitude Latitude Longitude Leg Dist Tot Dist Heading (true) Name
O EPKT APT - 0 ft / 0 m 50.47426˚ 19.07436˚ - 0 nm - PYRZOWICE
XALUR FIX - 21,200 ft / 6,462 m 51.84917˚ 19.98333˚ 89 nm 89 nm 22° / 23° -
O EPSY APT - 0 ft / 0 m 53.47973˚ 20.93650˚ 103 nm 193 nm 19° / 20° SZYMANY

Altitude Profile

Advertisement - Login to hide

Weather


0- 5 10 15 20 25 30 35+ Temperature / ° C

Clouds and Precipitation
Forecast for 2017-12-18 06:00 UTC. Updated 2 hours ago

Ground ~20,000 ft ~40,000 ft Winds

EPKT

Details ICAO EPKT (KTW)
Name PYRZOWICE
Region Poland
Timezone Europe/Warsaw (UTC+1.0)
Stats Elevation 995 ft / 303 m (AMSL)
Location 50.474263° 19.074356°
Runways 1
Magnetic Variation 5.086° E

METAR

EPKT 180700Z 36004KT 1600 BR BKN002 OVC003 M02/M03 Q1023

Decode

TAF

TAF AMD EPKT 180640Z 1806/1906 36004KT 2000 BR OVC002 TEMPO 1806/1809 0900 FZFG BECMG 1809/1811 5000 BR SCT004 BKN016 TEMPO 1811/1814 BKN004 BKN016 BECMG 1814/1816 1500 BR TEMPO 1817/1906 0500 FZFG OVC002

Decode

Departure Runways

ID Width Length Bearing (true) Bearing (mag) Surface Threshold Offset Overrun Length
09 195 ft / 59 m 9,156 ft / 2,791 m 90.18° 85.09° Concrete 0 ft / 0 m 0 ft / 0 m
27 195 ft / 59 m 9,156 ft / 2,791 m 270.22° 265.13° Concrete 0 ft / 0 m 0 ft / 0 m

EPSY

Details ICAO EPSY
Name SZYMANY
Region Poland
Timezone Europe/Warsaw (UTC+1.0)
Stats Elevation 463 ft / 141 m (AMSL)
Location 53.479731° 20.936497°
Runways 1
Magnetic Variation 6.017° E

METAR

EPSY 180700Z VRB02KT 0400 R01/1100N FZFG BKN001 M03/M03 Q1025 R01/19//94

Decode

TAF

Not found

Destination Runways

ID Width Length Bearing (true) Bearing (mag) Surface Threshold Offset Overrun Length
02 197 ft / 60 m 6,556 ft / 1,998 m 18.43° 12.41° Concrete 0 ft / 0 m 0 ft / 0 m
20 197 ft / 60 m 6,556 ft / 1,998 m 198.43° 192.41° Concrete 0 ft / 0 m 0 ft / 0 m

Approach Navaids

Runway Type Ident Frequency Range Bearing (true) Bearing (mag) Slope Elevation
02 Localiser SZN 110.10 MHz 18 nm / 33 km 18.44° 12.42° - 463 ft / 141 m (AMSL)
02 Glidescope SZN 110.10 MHz 10 nm / 19 km 18.43° 12.41° 3.00° 40 ft / 12 m (AMSL)
02 DME SZN 110.10 MHz 18 nm / 33 km - - - 492 ft / 150 m (AMSL)